createdAt,value
2022-08-18T00:01:37.201Z,55.95
2022-08-18T00:06:31.494Z,55.80
2022-08-18T00:08:59.626Z,57.42
2022-08-18T00:11:27.315Z,55.08
2022-08-18T00:13:54.084Z,56.88
2022-08-18T00:16:20.726Z,54.22
2022-08-18T00:21:12.984Z,53.72
2022-08-18T00:23:39.656Z,53.40
2022-08-18T00:28:31.803Z,52.42
2022-08-18T00:30:58.544Z,53.47
2022-08-18T00:40:43.476Z,53.72
2022-08-18T00:43:13.894Z,53.40
2022-08-18T00:45:41.944Z,53.80
2022-08-18T00:48:10.461Z,54.70
2022-08-18T00:50:38.671Z,53.65
2022-08-18T00:53:13.758Z,54.40
2022-08-18T00:55:41.632Z,54.70
2022-08-18T01:00:52.821Z,50.58
2022-08-18T01:03:22.323Z,52.88
2022-08-18T01:06:03.646Z,51.08
2022-08-18T01:08:30.373Z,51.90
2022-08-18T01:10:58.070Z,48.92
2022-08-18T01:13:27.108Z,50.35
2022-08-18T01:15:53.807Z,48.40
2022-08-18T01:18:39.931Z,48.70
2022-08-18T01:21:33.758Z,47.08
2022-08-18T01:24:02.824Z,44.42
2022-08-18T01:26:30.436Z,44.65
2022-08-18T01:29:05.012Z,44.17
2022-08-18T01:31:39.291Z,44.85
2022-08-18T01:36:48.173Z,42.50
2022-08-18T01:39:14.864Z,39.67
2022-08-18T01:44:27.826Z,38.45
2022-08-18T01:46:54.524Z,41.53
2022-08-18T01:54:15.022Z,40.88
2022-08-18T01:56:42.554Z,39.45
2022-08-18T01:59:14.140Z,38.65
2022-08-18T02:01:46.632Z,38.05
2022-08-18T02:09:08.307Z,38.97
2022-08-18T02:11:35.156Z,37.92
2022-08-18T02:14:01.844Z,36.95
2022-08-18T02:16:28.770Z,37.78
2022-08-18T02:23:53.150Z,35.67
2022-08-18T02:26:21.592Z,36.00
2022-08-18T02:28:48.294Z,34.60
2022-08-18T02:31:17.328Z,35.38
2022-08-18T02:36:11.133Z,34.17
2022-08-18T02:38:38.400Z,33.70
2022-08-18T02:41:10.843Z,34.80
2022-08-18T02:43:38.048Z,33.83
2022-08-18T02:46:05.815Z,33.50
2022-08-18T02:51:01.581Z,34.42
2022-08-18T02:53:28.900Z,33.95
2022-08-18T03:00:46.886Z,34.42
2022-08-18T03:05:39.512Z,32.70
2022-08-18T03:08:06.232Z,33.85
2022-08-18T03:15:23.779Z,32.30
2022-08-18T03:20:18.889Z,32.55
2022-08-18T03:22:57.487Z,32.38
2022-08-18T03:25:24.187Z,34.05
2022-08-18T03:27:51.028Z,34.20
2022-08-18T03:30:17.811Z,33.60
2022-08-18T03:32:45.850Z,35.33
2022-08-18T03:35:14.673Z,33.35
2022-08-18T03:37:41.309Z,34.53
2022-08-18T03:40:08.295Z,34.80
2022-08-18T03:42:35.035Z,34.40
2022-08-18T03:45:13.062Z,33.28
2022-08-18T03:47:46.050Z,33.83
2022-08-18T03:52:41.411Z,34.10
2022-08-18T03:55:08.720Z,33.30
2022-08-18T04:00:01.639Z,32.83
2022-08-18T04:02:32.182Z,31.70
2022-08-18T04:04:58.982Z,31.92
2022-08-18T04:07:25.639Z,30.33
2022-08-18T04:09:52.384Z,29.35
2022-08-18T04:12:19.108Z,29.50
2022-08-18T04:14:48.651Z,30.77
2022-08-18T04:17:24.461Z,29.88
2022-08-18T04:19:52.183Z,30.23
2022-08-18T04:22:18.906Z,30.33
2022-08-18T04:24:45.818Z,28.85
2022-08-18T04:27:12.838Z,27.30
2022-08-18T04:29:39.446Z,27.23
2022-08-18T04:41:50.130Z,25.08
2022-08-18T04:44:18.348Z,23.23
2022-08-18T04:46:51.121Z,24.55
2022-08-18T04:49:18.966Z,23.08
2022-08-18T04:52:22.498Z,24.23
2022-08-18T04:54:53.979Z,25.85
2022-08-18T04:59:48.781Z,27.88
2022-08-18T05:02:15.999Z,27.90
2022-08-18T05:07:13.083Z,30.17
2022-08-18T05:09:41.743Z,29.38
2022-08-18T05:14:36.149Z,30.63
2022-08-18T05:17:03.778Z,30.90
2022-08-18T05:21:59.616Z,30.85
2022-08-18T05:24:33.574Z,31.55
2022-08-18T05:27:03.791Z,33.13
2022-08-18T05:29:41.800Z,32.17
2022-08-18T05:32:37.326Z,32.50
2022-08-18T05:35:09.664Z,32.13
2022-08-18T05:45:04.822Z,31.35
2022-08-18T05:47:32.255Z,30.73
2022-08-18T05:50:03.847Z,31.30
2022-08-18T05:52:33.657Z,29.73
2022-08-18T05:55:29.158Z,29.75
2022-08-18T05:58:01.997Z,29.65
2022-08-18T06:02:59.932Z,28.65
2022-08-18T06:05:28.854Z,29.95
2022-08-18T06:08:05.001Z,28.83
2022-08-18T06:10:32.203Z,29.13
2022-08-18T06:12:59.914Z,29.08
2022-08-18T06:15:29.411Z,28.00
2022-08-18T06:18:08.016Z,29.35
2022-08-18T06:26:04.949Z,27.17
2022-08-18T06:28:42.572Z,26.98
2022-08-18T06:31:29.479Z,27.58
2022-08-18T06:34:02.899Z,26.15
2022-08-18T06:36:41.574Z,26.70
2022-08-18T06:39:23.987Z,26.67
2022-08-18T06:44:19.362Z,23.63
2022-08-18T06:46:50.164Z,24.73
2022-08-18T06:52:18.483Z,23.10
2022-08-18T06:54:49.472Z,24.38
2022-08-18T06:57:24.113Z,24.60
2022-08-18T07:00:06.924Z,23.08
2022-08-18T07:02:41.924Z,23.27
2022-08-18T07:05:14.669Z,21.58
2022-08-18T07:10:28.058Z,20.42
2022-08-18T07:13:06.517Z,16.95
2022-08-18T07:15:33.235Z,16.02
2022-08-18T07:18:05.389Z,16.63
2022-08-18T07:20:41.003Z,14.52
2022-08-18T07:23:08.054Z,13.77
2022-08-18T07:25:46.123Z,14.07
2022-08-18T07:28:48.046Z,13.45
2022-08-18T07:31:17.810Z,13.10
2022-08-18T07:33:48.105Z,13.00
2022-08-18T07:36:15.197Z,12.35
2022-08-18T07:41:20.437Z,9.00
2022-08-18T07:46:31.887Z,7.30
2022-08-18T07:51:37.615Z,7.57
2022-08-18T08:01:56.228Z,8.57
2022-08-18T08:04:25.378Z,8.97
2022-08-18T08:07:25.844Z,8.93
2022-08-18T08:09:58.431Z,9.10
2022-08-18T08:12:25.483Z,9.20
2022-08-18T08:14:58.281Z,8.57
2022-08-18T08:25:46.673Z,8.13
2022-08-18T08:28:28.872Z,7.40
2022-08-18T08:31:35.510Z,7.03
2022-08-18T08:49:34.956Z,8.45
2022-08-18T08:52:05.058Z,8.48
2022-08-18T08:59:37.528Z,7.60
2022-08-18T09:02:27.024Z,6.85
2022-08-18T09:05:08.754Z,6.75
2022-08-18T09:07:39.775Z,6.97
2022-08-18T09:10:12.820Z,6.78
2022-08-18T09:15:42.475Z,6.70
2022-08-18T09:18:21.148Z,7.03
2022-08-18T09:23:23.897Z,6.13
2022-08-18T09:25:55.745Z,6.50
2022-08-18T09:28:23.514Z,6.25
2022-08-18T09:30:54.406Z,6.85
2022-08-18T09:36:21.140Z,6.13
2022-08-18T09:39:14.331Z,5.90
2022-08-18T09:44:44.352Z,6.35
2022-08-18T10:00:13.748Z,5.80
2022-08-18T10:02:41.798Z,5.70
2022-08-18T10:05:15.550Z,5.90
2022-08-18T10:07:44.264Z,6.28
2022-08-18T10:13:25.094Z,6.10
2022-08-18T10:15:52.080Z,6.47
2022-08-18T10:18:34.205Z,6.68
2022-08-18T10:21:10.480Z,7.40
2022-08-18T10:23:49.420Z,6.75
2022-08-18T10:29:00.702Z,6.47
2022-08-18T10:31:28.118Z,6.55
2022-08-18T10:34:00.899Z,6.10
2022-08-18T10:36:40.167Z,6.68
2022-08-18T10:39:11.377Z,6.70
2022-08-18T10:41:46.050Z,6.88
2022-08-18T10:44:28.818Z,6.40
2022-08-18T10:46:57.410Z,6.95
2022-08-18T10:54:22.917Z,8.63
2022-08-18T10:56:55.660Z,8.82
2022-08-18T10:59:28.608Z,8.88
2022-08-18T11:02:08.721Z,8.35
2022-08-18T11:04:47.059Z,8.68
2022-08-18T11:07:28.598Z,9.60
2022-08-18T11:10:13.198Z,8.60
2022-08-18T11:12:53.638Z,8.85
2022-08-18T11:15:25.672Z,9.10
2022-08-18T11:18:11.563Z,8.25
2022-08-18T11:23:11.790Z,8.35
2022-08-18T11:28:14.759Z,7.82
2022-08-18T11:30:46.532Z,7.78
2022-08-18T11:33:22.965Z,7.90
2022-08-18T11:35:52.954Z,7.80
2022-08-18T11:41:11.720Z,7.68
2022-08-18T11:43:42.470Z,7.40
2022-08-18T11:46:29.263Z,7.88
2022-08-18T11:51:25.542Z,8.45
2022-08-18T12:04:20.795Z,8.50
2022-08-18T12:06:54.079Z,7.60
2022-08-18T12:09:54.134Z,7.78
2022-08-18T12:12:22.488Z,8.70
2022-08-18T12:15:01.091Z,8.63
2022-08-18T12:17:32.489Z,7.53
2022-08-18T12:19:59.891Z,7.45
2022-08-18T12:22:28.286Z,6.38
2022-08-18T12:24:55.000Z,6.82
2022-08-18T12:27:24.149Z,6.60
2022-08-18T12:29:53.302Z,6.47
2022-08-18T12:32:48.718Z,6.07
2022-08-18T12:35:11.344Z,5.95
2022-08-18T12:47:22.317Z,5.80
2022-08-18T12:49:49.411Z,5.00
2022-08-18T12:57:33.098Z,5.80
2022-08-18T13:07:22.728Z,6.20
2022-08-18T13:12:16.656Z,5.53
2022-08-18T13:14:44.582Z,6.25
2022-08-18T13:17:29.979Z,5.65
2022-08-18T13:19:58.897Z,5.97
2022-08-18T13:29:45.385Z,5.38
2022-08-18T13:32:12.226Z,5.45
2022-08-18T13:34:39.137Z,6.10
2022-08-18T13:37:10.359Z,6.68
2022-08-18T13:39:37.074Z,6.07
2022-08-18T13:42:26.549Z,6.00
2022-08-18T13:44:59.461Z,6.80
2022-08-18T13:52:44.403Z,6.95
2022-08-18T13:57:48.240Z,7.82
2022-08-18T14:00:20.293Z,9.52
2022-08-18T14:02:58.936Z,8.18
2022-08-18T14:05:36.729Z,8.68
2022-08-18T14:13:20.763Z,10.25
2022-08-18T14:15:54.972Z,8.75
2022-08-18T14:18:28.630Z,9.05
2022-08-18T14:21:14.760Z,10.48
2022-08-18T14:23:59.782Z,10.65
2022-08-18T14:29:11.315Z,10.05
2022-08-18T14:31:43.238Z,10.38
2022-08-18T14:36:37.271Z,9.77
2022-08-18T14:39:06.191Z,8.55
2022-08-18T14:44:13.747Z,9.85
2022-08-18T14:46:54.511Z,10.52
2022-08-18T14:49:28.564Z,9.55
2022-08-18T14:51:57.342Z,9.43
2022-08-18T14:54:28.676Z,10.82
2022-08-18T14:56:56.760Z,9.15
2022-08-18T15:01:51.393Z,8.88
2022-08-18T15:04:19.344Z,9.05
2022-08-18T15:06:55.871Z,8.23
2022-08-18T15:09:24.437Z,8.65
2022-08-18T15:11:56.306Z,9.30
2022-08-18T15:14:26.647Z,8.82
2022-08-18T15:17:00.343Z,9.75
2022-08-18T15:19:59.323Z,11.38
2022-08-18T15:25:15.979Z,9.13
2022-08-18T15:27:45.137Z,9.35
2022-08-18T15:30:19.693Z,9.02
2022-08-18T15:32:47.252Z,8.77
2022-08-18T15:35:17.089Z,9.10
2022-08-18T15:37:44.853Z,8.75
2022-08-18T15:40:30.217Z,9.90
2022-08-18T15:43:01.473Z,8.85
2022-08-18T15:45:35.317Z,8.55
2022-08-18T15:48:02.430Z,8.95
2022-08-18T15:50:29.454Z,8.95
2022-08-18T15:55:22.625Z,8.43
2022-08-18T15:57:56.901Z,9.32
2022-08-18T16:00:26.907Z,8.32
2022-08-18T16:02:57.153Z,8.25
2022-08-18T16:05:28.901Z,7.43
2022-08-18T16:07:58.243Z,8.13
2022-08-18T16:10:26.068Z,8.35
2022-08-18T16:15:21.559Z,8.95
2022-08-18T16:17:49.769Z,8.40
2022-08-18T16:22:44.407Z,9.13
2022-08-18T16:25:11.474Z,8.35
2022-08-18T16:27:41.714Z,8.63
2022-08-18T16:30:09.933Z,8.10
2022-08-18T16:32:36.714Z,8.20
2022-08-18T16:35:04.010Z,8.60
2022-08-18T16:37:30.687Z,7.85
2022-08-18T16:39:57.515Z,8.75
2022-08-18T16:42:24.231Z,8.05
2022-08-18T16:47:18.413Z,8.20
2022-08-18T16:49:48.554Z,7.72
2022-08-18T16:52:16.091Z,7.47
2022-08-18T16:54:46.456Z,6.68
2022-08-18T16:57:13.650Z,5.88
2022-08-18T17:02:43.393Z,5.93
2022-08-18T17:05:12.022Z,6.10
2022-08-18T17:07:38.882Z,6.18
2022-08-18T17:10:06.158Z,6.22
2022-08-18T17:12:33.012Z,5.70
2022-08-18T17:14:59.751Z,6.13
2022-08-18T17:17:26.426Z,5.80
2022-08-18T17:22:19.320Z,5.57
2022-08-18T17:24:49.767Z,5.82
2022-08-18T17:27:37.247Z,5.68
2022-08-18T17:30:07.152Z,6.05
2022-08-18T17:32:48.074Z,6.05
2022-08-18T17:35:28.689Z,5.93
2022-08-18T17:43:31.451Z,5.43
2022-08-18T17:46:13.802Z,5.60
2022-08-18T17:48:55.378Z,5.43
2022-08-18T17:51:43.596Z,5.28
2022-08-18T17:54:11.322Z,5.78
2022-08-18T17:57:01.879Z,6.15
2022-08-18T17:59:45.947Z,6.32
2022-08-18T18:02:29.933Z,5.45
2022-08-18T18:10:01.661Z,6.05
2022-08-18T18:19:54.211Z,5.47
2022-08-18T18:25:34.776Z,6.22
2022-08-18T18:28:01.861Z,5.70
2022-08-18T18:30:32.876Z,5.63
2022-08-18T18:35:31.138Z,6.15
2022-08-18T18:38:03.365Z,5.95
2022-08-18T18:40:36.231Z,5.90
2022-08-18T18:45:59.874Z,5.38
2022-08-18T18:48:38.608Z,6.22
2022-08-18T18:51:32.660Z,5.88
2022-08-18T18:54:02.227Z,5.15
2022-08-18T18:59:05.435Z,6.22
2022-08-18T19:06:50.653Z,4.65
2022-08-18T19:09:22.132Z,3.90
2022-08-18T19:12:18.191Z,4.00
2022-08-18T19:25:00.620Z,3.88
2022-08-18T19:27:29.067Z,3.88
2022-08-18T19:29:58.801Z,3.88
2022-08-18T19:32:33.807Z,5.00
2022-08-18T19:35:04.374Z,3.55
2022-08-18T19:37:47.112Z,3.40
2022-08-18T19:40:16.786Z,3.67
2022-08-18T19:42:51.633Z,3.95
2022-08-18T19:45:44.589Z,3.67
2022-08-18T19:48:18.254Z,3.38
2022-08-18T19:50:53.015Z,3.67
2022-08-18T20:00:59.307Z,3.70
2022-08-18T20:03:36.350Z,3.92
2022-08-18T20:06:33.687Z,3.50
2022-08-18T20:09:21.378Z,3.15
2022-08-18T20:15:09.090Z,3.83
2022-08-18T20:20:28.220Z,3.35
2022-08-18T20:22:57.449Z,3.30
2022-08-18T20:25:24.292Z,2.70
2022-08-18T20:28:14.876Z,2.40
2022-08-18T20:31:01.711Z,3.03
2022-08-18T20:36:14.234Z,2.50
2022-08-18T20:38:43.334Z,2.22
2022-08-18T20:41:28.394Z,2.13
2022-08-18T20:44:01.596Z,2.13
2022-08-18T20:46:42.636Z,2.45
2022-08-18T20:49:23.274Z,1.83
2022-08-18T20:51:57.980Z,2.03
2022-08-18T20:54:30.769Z,2.30
2022-08-18T20:56:59.792Z,2.50
2022-08-18T21:02:01.178Z,2.45
2022-08-18T21:04:41.203Z,2.30
2022-08-18T21:07:16.266Z,2.38
2022-08-18T21:09:48.640Z,2.20
2022-08-18T21:12:21.959Z,2.38
2022-08-18T21:19:43.534Z,2.40
2022-08-18T21:24:38.920Z,2.47
2022-08-18T21:27:07.057Z,2.50
2022-08-18T21:34:41.713Z,2.42
2022-08-18T21:37:11.939Z,2.40
2022-08-18T21:42:18.122Z,2.10
2022-08-18T21:44:46.276Z,2.03
2022-08-18T21:52:24.431Z,2.28
2022-08-18T21:54:51.123Z,1.90
2022-08-18T21:57:26.292Z,2.15
2022-08-18T22:00:12.072Z,1.92
2022-08-18T22:02:38.710Z,2.35
2022-08-18T22:05:05.546Z,2.10
2022-08-18T22:07:35.271Z,2.00
2022-08-18T22:10:24.922Z,2.10
2022-08-18T22:13:11.322Z,2.15
2022-08-18T22:18:16.572Z,2.03
2022-08-18T22:20:43.306Z,2.22
2022-08-18T22:23:28.471Z,1.90
2022-08-18T22:26:05.322Z,2.10
2022-08-18T22:30:59.511Z,1.80
2022-08-18T22:33:26.206Z,1.90
2022-08-18T22:35:53.889Z,1.83
2022-08-18T22:38:20.684Z,2.00
2022-08-18T22:40:48.285Z,1.83
2022-08-18T22:43:16.701Z,1.95
2022-08-18T22:45:43.496Z,1.80
2022-08-18T22:48:10.169Z,1.80
2022-08-18T22:53:02.730Z,1.55
2022-08-18T22:55:29.472Z,2.10
2022-08-18T22:57:57.095Z,2.25
2022-08-18T23:00:24.140Z,1.63
2022-08-18T23:02:52.350Z,1.70
2022-08-18T23:05:19.170Z,2.08
2022-08-18T23:07:46.257Z,1.67
2022-08-18T23:10:14.196Z,1.80
2022-08-18T23:12:42.717Z,1.88
2022-08-18T23:15:12.899Z,1.75
2022-08-18T23:17:40.700Z,1.70
2022-08-18T23:20:11.450Z,2.17
2022-08-18T23:25:09.050Z,1.88
2022-08-18T23:27:36.658Z,2.17
2022-08-18T23:34:55.884Z,2.45
2022-08-18T23:37:22.656Z,2.33
2022-08-18T23:39:49.330Z,2.50
2022-08-18T23:42:16.574Z,2.78
2022-08-18T23:44:44.387Z,2.33
2022-08-18T23:47:11.098Z,2.30
2022-08-18T23:49:38.318Z,2.20
2022-08-18T23:56:59.197Z,2.22
2022-08-18T23:59:27.164Z,2.40
